Latest Weather Observations for Stawell

IDV60801

Issued at 2:05 pm EST Wednesday 24 September 2014 (issued every 30 minutes, with the page automatically refreshed every 10 minutes)

About weather observations | Map of weather stations | Latest weather observations for VIC | Other Formats
Station Details ID: 079105 Name: STAWELL AERODROME Lat: -37.07 Lon: 142.74 Height: 235.36 m
Data from the previous 72 hours. | See also: Recent months at Stawell
Date/Time
EST
Temp
°C
App
Temp
°C
Dew
Point
Rel
Hum
%
Delta-T
°C
Wind Press
QNH
hPa
Press
MSL
hPa
Rain
since 9 am
mm
Dir
 
Spd
km/h
Gust
km/h
Spd
kts
Gust
kts
24/02:00pm 20.6 18.0 7.9 44 6.7 WSW 11 17 6 9 1012.1 - 0.0
24/01:30pm 21.0 18.5 6.5 39 7.4 W 9 11 5 6 1012.2 - 0.0
24/01:00pm 21.4 19.3 6.5 38 7.6 W 7 13 4 7 1012.5 - 0.0
24/12:30pm 21.7 19.5 6.0 36 8.0 NNW 7 11 4 6 1012.8 - 0.0
24/12:00pm 21.5 19.5 6.2 37 7.8 W 6 11 3 6 1013.3 1014.2 0.0
24/11:30am 20.7 17.8 6.3 39 7.3 N 11 17 6 9 1013.9 - 0.0
24/11:00am 20.7 18.7 7.0 41 7.1 N 7 17 4 9 1014.3 - 0.0
24/10:30am 19.2 16.3 6.7 44 6.3 NNE 11 15 6 8 1014.7 - 0.0
24/10:00am 18.8 16.8 6.3 44 6.3 E 6 9 3 5 1014.9 - 0.0
24/09:30am 17.7 15.6 6.6 48 5.6 E 7 9 4 5 1015.0 - 0.0
24/09:00am 16.5 14.1 6.9 53 4.8 E 9 13 5 7 1015.4 1016.4 0.0
24/08:30am 16.0 14.3 7.7 58 4.2 E 6 9 3 5 1015.4 - 0.0
24/08:00am 15.2 14.8 8.2 63 3.6 CALM 0 0 0 0 1015.8 - 0.0
24/07:30am 14.2 12.5 8.4 68 2.9 ESE 7 9 4 5 1015.6 - 0.0
24/07:00am 12.9 11.6 7.6 70 2.6 W 4 9 2 5 1015.6 - 0.0
24/06:30am 13.5 12.2 7.7 68 2.9 ESE 4 7 2 4 1015.3 - 0.0
24/06:00am 13.8 11.5 7.3 65 3.2 ESE 9 13 5 7 1015.4 1016.4 0.0
24/05:30am 13.5 11.7 8.1 70 2.7 S 7 11 4 6 1015.7 - 0.0
24/05:00am 14.3 12.0 4.9 53 4.4 W 6 7 3 4 1015.9 - 0.0
24/04:30am 15.2 14.0 4.6 49 5.0 CALM 0 6 0 3 1015.7 - 0.0
24/04:00am 15.5 13.2 4.8 49 5.1 ESE 6 9 3 5 1015.7 - 0.0
24/03:30am 16.1 13.6 4.5 46 5.5 W 7 15 4 8 1015.9 - 0.0
24/03:00am 16.3 13.0 4.7 46 5.5 ENE 11 19 6 10 1015.8 1016.8 0.0
24/02:30am 16.3 13.1 5.0 47 5.4 ENE 11 19 6 10 1016.2 - 0.0
24/02:00am 16.6 12.2 4.9 46 5.6 ENE 17 26 9 14 1016.5 - 0.0
24/01:30am 17.0 12.3 5.0 45 5.8 ENE 19 26 10 14 1016.8 - 0.0
24/01:00am 17.4 12.7 5.0 44 6.0 ENE 19 26 10 14 1017.2 - 0.0
24/12:30am 17.5 13.2 5.4 45 5.9 ENE 17 22 9 12 1017.7 - 0.0
24/12:00am 17.5 13.2 5.4 45 5.9 ENE 17 22 9 12 1018.0 1018.9 0.0
 
Date/Time
EST
Temp
°C
App
Temp
°C
Dew
Point
Rel
Hum
%
Delta-T
°C
Wind Press
QNH
hPa
Press
MSL
hPa
Rain
since 9 am
mm
Dir
 
Spd
km/h
Gust
km/h
Spd
kts
Gust
kts
23/11:30pm 17.5 13.3 5.8 46 5.8 ENE 17 22 9 12 1018.2 - 0.0
23/11:00pm 17.7 13.5 5.9 46 5.8 ENE 17 26 9 14 1018.3 - 0.0
23/10:30pm 18.5 13.7 5.7 43 6.3 ENE 20 28 11 15 1018.5 - 0.0
23/10:00pm 18.4 14.1 5.3 42 6.4 ENE 17 24 9 13 1018.7 - 0.0
23/09:30pm 18.4 14.3 4.2 39 6.8 ENE 15 22 8 12 1018.9 - 0.0
23/09:00pm 18.9 15.2 4.3 38 7.0 ENE 13 20 7 11 1019.0 1020.0 0.0
23/08:30pm 19.5 15.8 4.4 37 7.3 ENE 13 19 7 10 1019.1 - 0.0
23/08:00pm 19.9 16.5 4.0 35 7.7 ENE 11 15 6 8 1019.1 - 0.0
23/07:30pm 20.4 16.9 3.6 33 8.1 ENE 11 15 6 8 1019.0 - 0.0
23/07:00pm 21.2 17.7 3.4 31 8.6 ENE 11 13 6 7 1019.0 - 0.0
23/06:30pm 21.7 18.1 2.9 29 9.0 NE 11 17 6 9 1019.0 - 0.0
23/06:00pm 22.5 18.5 3.1 28 9.4 NNE 13 19 7 10 1019.0 1020.0 0.0
23/05:30pm 23.0 18.7 3.0 27 9.7 N 15 20 8 11 1018.9 - 0.0
23/05:00pm 23.4 18.6 2.8 26 10.0 N 17 24 9 13 1019.1 - 0.0
23/04:30pm 23.7 17.6 2.5 25 10.2 NNE 24 35 13 19 1019.1 - 0.0
23/04:00pm 24.3 18.2 2.5 24 10.6 NE 24 32 13 17 1019.3 - 0.0
23/03:30pm 24.7 18.9 2.2 23 10.9 N 22 33 12 18 1019.6 - 0.0
23/03:00pm 24.5 17.8 1.4 22 11.0 N 26 39 14 21 1019.8 1020.8 0.0
23/02:30pm 24.2 18.7 1.8 23 10.7 N 20 33 11 18 1020.4 - 0.0
23/02:00pm 24.3 18.7 3.6 26 10.2 N 22 33 12 18 1020.7 - 0.0
23/01:30pm 24.3 19.1 3.6 26 10.2 NNW 20 37 11 20 1021.2 - 0.0
23/01:00pm 23.5 18.0 4.0 28 9.7 N 22 33 12 18 1021.7 - 0.0
23/12:30pm 23.6 18.0 5.5 31 9.2 N 24 37 13 20 1022.3 - 0.0
23/12:00pm 22.8 18.0 5.7 33 8.7 N 20 33 11 18 1022.9 1023.9 0.0
23/11:30am 21.3 16.7 5.6 36 7.9 N 19 24 10 13 1023.4 - 0.0
23/11:00am 21.4 17.2 5.7 36 7.9 NNE 17 26 9 14 1023.8 - 0.0
23/10:30am 19.6 16.3 4.5 37 7.4 N 11 19 6 10 1024.2 - 0.0
23/10:00am 19.1 16.2 4.5 38 7.1 N 9 13 5 7 1024.7 - 0.0
23/09:30am 17.6 15.1 3.9 40 6.5 NE 6 11 3 6 1025.1 - 0.0
23/09:00am 16.1 12.6 3.5 43 5.8 N 11 17 6 9 1025.3 1026.3 0.0
23/08:30am 15.4 12.7 2.9 43 5.7 NE 6 13 3 7 1025.5 - 0.0
23/08:00am 14.5 12.3 3.6 48 5.0 S 4 9 2 5 1025.2 - 0.0
23/07:30am 12.9 10.4 3.8 54 4.2 S 6 9 3 5 1025.1 - 0.0
23/07:00am 9.6 6.9 3.8 67 2.6 SSE 7 9 4 5 1024.9 - 0.0
23/06:30am 7.3 4.5 2.2 70 2.1 ESE 6 7 3 4 1024.8 - 0.0
23/06:00am 9.3 6.3 4.1 70 2.3 SSE 9 11 5 6 1024.5 1025.5 0.0
23/05:30am 7.1 5.2 2.8 74 1.8 E 2 7 1 4 1024.5 - 0.0
23/05:00am 6.7 4.3 2.4 74 1.8 E 4 6 2 3 1024.3 - 0.0
23/04:30am 11.2 8.3 2.8 56 3.7 E 7 9 4 5 1024.3 - 0.0
23/04:00am 10.6 8.0 3.4 61 3.2 E 6 7 3 4 1024.3 - 0.0
23/03:30am 9.5 6.5 0.9 55 3.6 E 6 9 3 5 1024.2 - 0.0
23/03:00am 12.1 8.8 2.3 51 4.3 E 9 11 5 6 1024.3 1025.3 0.0
23/02:30am 12.2 9.2 2.1 50 4.4 E 7 9 4 5 1024.4 - 0.0
23/02:00am 12.3 9.3 2.2 50 4.4 ESE 7 11 4 6 1024.6 - 0.0
23/01:30am 12.4 9.1 2.6 51 4.3 E 9 11 5 6 1025.0 - 0.0
23/01:00am 12.3 9.0 2.2 50 4.4 E 9 11 5 6 1025.2 - 0.0
23/12:30am 12.8 9.4 1.8 47 4.8 E 9 13 5 7 1025.4 - 0.0
23/12:00am 13.1 9.1 0.5 42 5.3 E 11 15 6 8 1025.3 1026.3 0.0
 
Date/Time
EST
Temp
°C
App
Temp
°C
Dew
Point
Rel
Hum
%
Delta-T
°C
Wind Press
QNH
hPa
Press
MSL
hPa
Rain
since 9 am
mm
Dir
 
Spd
km/h
Gust
km/h
Spd
kts
Gust
kts
22/11:30pm 13.3 9.2 -0.3 39 5.7 E 11 13 6 7 1025.5 - 0.0
22/11:00pm 13.7 9.5 -0.7 37 6.0 ESE 11 15 6 8 1025.6 - 0.0
22/10:30pm 13.9 9.8 -0.5 37 6.0 ESE 11 15 6 8 1025.8 - 0.0
22/10:00pm 13.8 9.6 -0.6 37 6.0 ESE 11 13 6 7 1025.9 - 0.0
22/09:30pm 13.9 10.1 -0.9 36 6.1 E 9 11 5 6 1025.9 - 0.0
22/09:00pm 14.3 10.1 -0.9 35 6.3 ESE 11 13 6 7 1025.8 1026.9 0.0
22/08:30pm 14.8 10.6 -0.9 34 6.6 ESE 11 13 6 7 1025.6 - 0.0
22/08:00pm 15.1 11.3 -0.6 34 6.6 ESE 9 11 5 6 1025.3 - 0.0
22/07:30pm 15.3 11.1 -0.9 33 6.8 ESE 11 11 6 6 1025.0 - 0.0
22/07:00pm 16.4 12.6 -0.8 31 7.3 E 9 11 5 6 1024.7 - 0.0
22/06:30pm 19.1 15.6 -1.4 25 8.8 ENE 7 7 4 4 1024.4 - 0.0
22/06:00pm 20.8 16.7 -3.0 20 10.0 NNE 9 15 5 8 1024.3 1025.3 0.0
22/05:30pm 21.5 16.2 -3.8 18 10.6 NNE 15 20 8 11 1024.0 - 0.0
22/05:00pm 21.9 16.2 -3.5 18 10.8 NNE 17 26 9 14 1024.0 - 0.0
22/04:30pm 22.2 17.3 -3.2 18 10.9 N 13 19 7 10 1023.9 - 0.0
22/04:00pm 22.3 17.4 -3.1 18 10.9 NNE 13 24 7 13 1023.9 - 0.0
22/03:30pm 22.4 16.5 -2.3 19 10.8 N 19 26 10 14 1024.0 - 0.0
22/03:00pm 22.3 16.7 -3.1 18 10.8 N 17 26 9 14 1024.4 1025.4 0.0
22/02:30pm 21.5 15.5 -3.1 19 10.5 N 19 28 10 15 1024.7 - 0.0
22/02:00pm 22.0 16.2 -1.3 21 10.3 NNE 19 28 10 15 1025.0 - 0.0
22/01:30pm 20.9 14.8 -2.2 21 10.0 NNE 20 30 11 16 1025.3 - 0.0
22/01:00pm 20.7 14.7 -1.2 23 9.6 NNE 20 26 11 14 1025.8 - 0.0
22/12:30pm 19.7 14.5 0.2 27 8.7 NNW 17 24 9 13 1026.2 - 0.0
22/12:00pm 19.5 14.6 -0.5 26 8.8 N 15 24 8 13 1026.6 1027.7 0.0
22/11:30am 18.9 14.4 2.3 33 7.7 N 15 24 8 13 1027.1 - 0.0
22/11:00am 17.7 14.1 3.2 38 6.8 NNE 11 20 6 11 1027.6 - 0.0
22/10:30am 17.1 13.5 5.1 45 5.8 N 13 19 7 10 1028.1 - 0.0
22/10:00am 15.8 12.1 4.2 46 5.5 N 13 20 7 11 1028.3 - 0.0
22/09:30am 14.9 11.3 5.1 52 4.7 N 13 20 7 11 1028.5 - 0.0
22/09:00am 13.7 11.1 6.1 60 3.6 NNE 9 11 5 6 1028.6 1029.6 0.0
22/08:30am 12.0 11.0 5.6 65 3.0 CALM 0 6 0 3 1028.7 - 0.0
22/08:00am 10.7 10.0 6.8 77 1.9 CALM 0 0 0 0 1028.4 - 0.0
22/07:30am 7.1 6.2 5.9 92 0.5 CALM 0 6 0 3 1028.2 - 0.0
22/07:00am 4.2 1.7 3.6 96 0.3 ESE 6 6 3 3 1027.9 - 0.0
22/06:30am 2.9 1.3 2.5 97 0.2 CALM 0 0 0 0 1027.7 - 0.0
22/06:00am 2.4 0.7 1.7 95 0.3 CALM 0 0 0 0 1027.6 1028.6 0.0
22/05:30am 3.2 1.7 2.8 97 0.2 CALM 0 0 0 0 1027.3 - 0.0
22/05:00am 3.7 2.3 3.3 97 0.2 CALM 0 0 0 0 1026.8 - 0.0
22/04:30am 3.3 1.7 2.7 96 0.2 CALM 0 0 0 0 1026.8 - 0.0
22/04:00am 4.0 0.9 3.6 97 0.2 ESE 9 11 5 6 1026.5 - 0.0
22/03:30am 3.3 0.0 2.6 95 0.3 ESE 9 11 5 6 1026.8 - 0.0
22/03:00am 4.5 2.8 3.9 96 0.3 SSE 2 6 1 3 1027.2 1028.2 0.0
22/02:30am 4.1 1.6 3.5 96 0.3 SSE 6 7 3 4 1027.5 - 0.0
22/02:00am 4.3 2.5 3.6 95 0.3 SSE 2 7 1 4 1027.3 - 0.0
22/01:30am 4.7 3.4 4.0 95 0.3 CALM 0 0 0 0 1027.5 - 0.0
22/01:00am 4.4 3.0 3.5 94 0.4 CALM 0 6 0 3 1027.6 - 0.0
22/12:30am 4.6 2.0 3.4 92 0.5 SSE 6 7 3 4 1027.7 - 0.0
22/12:00am 5.5 4.3 4.5 93 0.4 CALM 0 0 0 0 1027.6 1028.6 0.0
 
Date/Time
EST
Temp
°C
App
Temp
°C
Dew
Point
Rel
Hum
%
Delta-T
°C
Wind Press
QNH
hPa
Press
MSL
hPa
Rain
since 9 am
mm
Dir
 
Spd
km/h
Gust
km/h
Spd
kts
Gust
kts
21/11:30pm 4.8 2.6 3.3 90 0.6 SSE 4 7 2 4 1027.7 - 0.0
21/11:00pm 6.4 5.2 4.7 89 0.7 CALM 0 0 0 0 1027.9 - 0.0
21/10:30pm 6.7 5.5 4.7 87 0.9 CALM 0 0 0 0 1028.0 - 0.0
21/10:00pm 8.0 6.9 5.1 82 1.3 CALM 0 0 0 0 1028.2 - 0.0
21/09:30pm 10.0 9.1 6.0 76 1.9 CALM 0 0 0 0 1028.2 - 0.0
21/09:00pm 10.7 8.6 5.7 71 2.3 SSE 6 9 3 5 1028.3 1029.3 0.0
21/08:30pm 11.3 9.2 5.8 69 2.6 S 6 9 3 5 1028.4 - 0.0
21/08:00pm 12.1 9.5 5.9 66 2.9 S 9 11 5 6 1028.2 - 0.0
21/07:30pm 12.0 9.7 5.9 66 2.9 S 7 9 4 5 1028.0 - 0.0
21/07:00pm 12.7 10.4 5.8 63 3.3 SSW 7 9 4 5 1027.8 - 0.0
21/06:30pm 14.4 11.7 5.7 56 4.2 S 9 13 5 7 1027.5 - 0.0
21/06:00pm 16.1 13.2 4.8 47 5.4 SSE 9 11 5 6 1027.3 1028.3 0.0
21/05:30pm 16.6 13.7 4.6 45 5.7 SE 9 13 5 7 1027.2 - 0.0
21/05:00pm 17.2 13.5 4.2 42 6.2 SE 13 17 7 9 1027.2 - 0.0
21/04:30pm 17.2 13.1 4.2 42 6.2 SE 15 20 8 11 1027.4 - 0.0
21/04:00pm 17.5 14.3 5.1 44 6.0 S 11 15 6 8 1027.6 - 0.0
21/03:30pm 17.4 13.7 4.7 43 6.1 S 13 19 7 10 1027.7 - 0.0
21/03:00pm 17.0 13.7 4.3 43 6.0 SSE 11 19 6 10 1027.9 1028.9 0.0
21/02:30pm 16.8 13.1 4.5 44 5.9 S 13 20 7 11 1028.2 - 0.0

Other Formats:

Comma delimited format used in spreadsheet applications
http://www.bom.gov.au/fwo/IDV60801/IDV60801.94836.axf

JavaScript Object Notation format (JSON) in row-major order
http://www.bom.gov.au/fwo/IDV60801/IDV60801.94836.json